sensor_id;sensor_type;location;lat;lon;timestamp;temperature;humidity
39957;DHT22;48483;44.640;7.494;2023-05-02T00:00:58;12.00;99.90
39957;DHT22;48483;44.640;7.494;2023-05-02T00:03:27;12.00;99.90
39957;DHT22;48483;44.640;7.494;2023-05-02T00:05:54;12.00;99.90
39957;DHT22;48483;44.640;7.494;2023-05-02T00:08:20;11.90;99.90
39957;DHT22;48483;44.640;7.494;2023-05-02T00:10:47;11.90;99.90
39957;DHT22;48483;44.640;7.494;2023-05-02T00:13:14;11.90;99.90
39957;DHT22;48483;44.640;7.494;2023-05-02T00:15:41;11.90;99.90
39957;DHT22;48483;44.640;7.494;2023-05-02T00:18:08;12.00;99.90
39957;DHT22;48483;44.640;7.494;2023-05-02T00:20:35;12.00;99.90
39957;DHT22;48483;44.640;7.494;2023-05-02T00:23:01;12.00;99.90
39957;DHT22;48483;44.640;7.494;2023-05-02T00:25:28;11.90;99.90
39957;DHT22;48483;44.640;7.494;2023-05-02T00:27:55;11.90;99.90
39957;DHT22;48483;44.640;7.494;2023-05-02T00:30:21;11.90;99.90
39957;DHT22;48483;44.640;7.494;2023-05-02T00:32:48;12.00;99.90
39957;DHT22;48483;44.640;7.494;2023-05-02T00:35:16;11.90;99.90
39957;DHT22;48483;44.640;7.494;2023-05-02T00:37:42;11.90;99.90
39957;DHT22;48483;44.640;7.494;2023-05-02T00:40:10;11.90;99.90
39957;DHT22;48483;44.640;7.494;2023-05-02T00:42:37;11.90;99.90
39957;DHT22;48483;44.640;7.494;2023-05-02T00:45:04;11.90;99.90
39957;DHT22;48483;44.640;7.494;2023-05-02T00:47:32;11.90;99.90
39957;DHT22;48483;44.640;7.494;2023-05-02T00:49:59;11.90;99.90
39957;DHT22;48483;44.640;7.494;2023-05-02T00:52:27;11.80;99.90
39957;DHT22;48483;44.640;7.494;2023-05-02T00:54:54;11.90;99.90
39957;DHT22;48483;44.640;7.494;2023-05-02T00:57:21;11.80;99.90
39957;DHT22;48483;44.640;7.494;2023-05-02T00:59:48;11.90;99.90
39957;DHT22;48483;44.640;7.494;2023-05-02T01:02:29;11.90;99.90
39957;DHT22;48483;44.640;7.494;2023-05-02T01:05:03;11.90;99.90
39957;DHT22;48483;44.640;7.494;2023-05-02T01:07:46;11.90;99.90
39957;DHT22;48483;44.640;7.494;2023-05-02T01:10:22;11.80;99.90
39957;DHT22;48483;44.640;7.494;2023-05-02T01:12:58;11.90;99.90
39957;DHT22;48483;44.640;7.494;2023-05-02T01:15:26;11.80;99.90
39957;DHT22;48483;44.640;7.494;2023-05-02T01:17:54;11.80;99.90
39957;DHT22;48483;44.640;7.494;2023-05-02T01:20:24;11.70;99.90
39957;DHT22;48483;44.640;7.494;2023-05-02T01:22:56;11.80;99.90
39957;DHT22;48483;44.640;7.494;2023-05-02T01:25:30;11.80;99.90
39957;DHT22;48483;44.640;7.494;2023-05-02T01:28:08;11.80;99.90
39957;DHT22;48483;44.640;7.494;2023-05-02T01:30:40;11.80;99.90
39957;DHT22;48483;44.640;7.494;2023-05-02T01:33:10;11.80;99.90
39957;DHT22;48483;44.640;7.494;2023-05-02T01:35:37;11.80;99.90
39957;DHT22;48483;44.640;7.494;2023-05-02T01:38:05;11.80;99.90
39957;DHT22;48483;44.640;7.494;2023-05-02T01:40:33;11.80;99.90
39957;DHT22;48483;44.640;7.494;2023-05-02T01:43:03;11.80;99.90
39957;DHT22;48483;44.640;7.494;2023-05-02T01:45:32;11.80;99.90
39957;DHT22;48483;44.640;7.494;2023-05-02T01:48:02;11.80;99.90
39957;DHT22;48483;44.640;7.494;2023-05-02T01:50:30;11.80;99.90
39957;DHT22;48483;44.640;7.494;2023-05-02T01:52:57;11.90;99.90
39957;DHT22;48483;44.640;7.494;2023-05-02T01:55:24;11.80;99.90
39957;DHT22;48483;44.640;7.494;2023-05-02T01:57:53;11.80;99.90
39957;DHT22;48483;44.640;7.494;2023-05-02T02:00:22;11.80;99.90
39957;DHT22;48483;44.640;7.494;2023-05-02T02:02:50;11.80;99.90
39957;DHT22;48483;44.640;7.494;2023-05-02T02:05:19;11.80;99.90
39957;DHT22;48483;44.640;7.494;2023-05-02T02:07:47;11.80;99.90
39957;DHT22;48483;44.640;7.494;2023-05-02T02:10:14;11.80;99.90
39957;DHT22;48483;44.640;7.494;2023-05-02T02:12:42;11.80;99.90
39957;DHT22;48483;44.640;7.494;2023-05-02T02:15:17;11.90;99.90
39957;DHT22;48483;44.640;7.494;2023-05-02T02:17:47;11.90;99.90
39957;DHT22;48483;44.640;7.494;2023-05-02T02:20:15;11.90;99.90
39957;DHT22;48483;44.640;7.494;2023-05-02T02:22:44;11.90;99.90
39957;DHT22;48483;44.640;7.494;2023-05-02T02:25:14;11.90;99.90
39957;DHT22;48483;44.640;7.494;2023-05-02T02:27:41;11.90;99.90
39957;DHT22;48483;44.640;7.494;2023-05-02T02:30:09;11.90;99.90
39957;DHT22;48483;44.640;7.494;2023-05-02T02:32:37;11.90;99.90
39957;DHT22;48483;44.640;7.494;2023-05-02T02:35:04;11.90;99.90
39957;DHT22;48483;44.640;7.494;2023-05-02T02:37:34;11.90;99.90
39957;DHT22;48483;44.640;7.494;2023-05-02T02:40:04;11.80;99.90
39957;DHT22;48483;44.640;7.494;2023-05-02T02:42:36;11.90;99.90
39957;DHT22;48483;44.640;7.494;2023-05-02T02:45:16;11.90;99.90
39957;DHT22;48483;44.640;7.494;2023-05-02T02:47:49;11.90;99.90
39957;DHT22;48483;44.640;7.494;2023-05-02T02:50:21;11.90;99.90
39957;DHT22;48483;44.640;7.494;2023-05-02T02:52:54;11.90;99.90
39957;DHT22;48483;44.640;7.494;2023-05-02T02:55:43;11.90;99.90
39957;DHT22;48483;44.640;7.494;2023-05-02T02:58:20;11.90;99.90
39957;DHT22;48483;44.640;7.494;2023-05-02T03:00:52;11.90;99.90
39957;DHT22;48483;44.640;7.494;2023-05-02T03:03:21;11.90;99.90
39957;DHT22;48483;44.640;7.494;2023-05-02T03:05:48;11.90;99.90
39957;DHT22;48483;44.640;7.494;2023-05-02T03:08:15;11.90;99.90
39957;DHT22;48483;44.640;7.494;2023-05-02T03:10:43;11.90;99.90
39957;DHT22;48483;44.640;7.494;2023-05-02T03:13:10;11.90;99.90
39957;DHT22;48483;44.640;7.494;2023-05-02T03:16:26;11.90;99.90
39957;DHT22;48483;44.640;7.494;2023-05-02T03:18:54;11.90;99.90
39957;DHT22;48483;44.640;7.494;2023-05-02T03:21:22;11.90;99.90
39957;DHT22;48483;44.640;7.494;2023-05-02T03:23:49;11.90;99.90
39957;DHT22;48483;44.640;7.494;2023-05-02T03:26:17;12.00;99.90
39957;DHT22;48483;44.640;7.494;2023-05-02T03:28:44;11.90;99.90
39957;DHT22;48483;44.640;7.494;2023-05-02T03:31:19;12.00;99.90
39957;DHT22;48483;44.640;7.494;2023-05-02T03:33:46;12.00;99.90
39957;DHT22;48483;44.640;7.494;2023-05-02T03:36:12;12.00;99.90
39957;DHT22;48483;44.640;7.494;2023-05-02T03:38:39;12.00;99.90
39957;DHT22;48483;44.640;7.494;2023-05-02T03:41:09;12.00;99.90
39957;DHT22;48483;44.640;7.494;2023-05-02T03:43:37;12.00;99.90
39957;DHT22;48483;44.640;7.494;2023-05-02T03:46:05;12.00;99.90
39957;DHT22;48483;44.640;7.494;2023-05-02T03:48:34;12.00;99.90
39957;DHT22;48483;44.640;7.494;2023-05-02T03:51:03;12.00;99.90
39957;DHT22;48483;44.640;7.494;2023-05-02T03:53:36;12.00;99.90
39957;DHT22;48483;44.640;7.494;2023-05-02T03:56:04;12.00;99.90
39957;DHT22;48483;44.640;7.494;2023-05-02T03:58:42;12.10;99.90
39957;DHT22;48483;44.640;7.494;2023-05-02T04:01:13;12.00;99.90
39957;DHT22;48483;44.640;7.494;2023-05-02T04:03:41;12.10;99.90
39957;DHT22;48483;44.640;7.494;2023-05-02T04:06:08;12.10;99.90
39957;DHT22;48483;44.640;7.494;2023-05-02T04:08:35;12.00;99.90
39957;DHT22;48483;44.640;7.494;2023-05-02T04:11:02;12.00;99.90
39957;DHT22;48483;44.640;7.494;2023-05-02T04:13:30;12.00;99.90
39957;DHT22;48483;44.640;7.494;2023-05-02T04:15:59;12.00;99.90
39957;DHT22;48483;44.640;7.494;2023-05-02T04:18:29;12.00;99.90
39957;DHT22;48483;44.640;7.494;2023-05-02T04:20:56;12.00;99.90
39957;DHT22;48483;44.640;7.494;2023-05-02T04:23:24;12.10;99.90
39957;DHT22;48483;44.640;7.494;2023-05-02T04:25:55;12.10;99.90
39957;DHT22;48483;44.640;7.494;2023-05-02T04:28:29;12.10;99.90
39957;DHT22;48483;44.640;7.494;2023-05-02T04:30:56;12.10;99.90
39957;DHT22;48483;44.640;7.494;2023-05-02T04:33:26;12.10;99.90
39957;DHT22;48483;44.640;7.494;2023-05-02T04:35:53;12.10;99.90
39957;DHT22;48483;44.640;7.494;2023-05-02T04:38:22;12.10;99.90
39957;DHT22;48483;44.640;7.494;2023-05-02T04:40:50;12.20;99.90
39957;DHT22;48483;44.640;7.494;2023-05-02T04:43:21;12.20;99.90
39957;DHT22;48483;44.640;7.494;2023-05-02T04:45:53;12.20;99.90
39957;DHT22;48483;44.640;7.494;2023-05-02T04:48:27;12.20;99.90
39957;DHT22;48483;44.640;7.494;2023-05-02T04:50:53;12.20;99.90
39957;DHT22;48483;44.640;7.494;2023-05-02T04:53:21;12.10;99.90
39957;DHT22;48483;44.640;7.494;2023-05-02T04:55:48;12.10;99.90
39957;DHT22;48483;44.640;7.494;2023-05-02T04:58:15;12.20;99.90
39957;DHT22;48483;44.640;7.494;2023-05-02T05:00:44;12.10;99.90
39957;DHT22;48483;44.640;7.494;2023-05-02T05:03:10;12.10;99.90
39957;DHT22;48483;44.640;7.494;2023-05-02T05:05:38;12.10;99.90
39957;DHT22;48483;44.640;7.494;2023-05-02T05:08:08;12.10;99.90
39957;DHT22;48483;44.640;7.494;2023-05-02T05:10:36;12.20;99.90
39957;DHT22;48483;44.640;7.494;2023-05-02T05:13:03;12.20;99.90
39957;DHT22;48483;44.640;7.494;2023-05-02T05:15:31;12.30;99.90
39957;DHT22;48483;44.640;7.494;2023-05-02T05:18:00;12.30;99.90
39957;DHT22;48483;44.640;7.494;2023-05-02T05:20:27;12.30;99.90
39957;DHT22;48483;44.640;7.494;2023-05-02T05:22:59;12.30;99.90
39957;DHT22;48483;44.640;7.494;2023-05-02T05:25:26;12.40;99.90
39957;DHT22;48483;44.640;7.494;2023-05-02T05:27:54;12.40;99.90
39957;DHT22;48483;44.640;7.494;2023-05-02T05:30:21;12.40;99.90
39957;DHT22;48483;44.640;7.494;2023-05-02T05:32:48;12.40;99.90
39957;DHT22;48483;44.640;7.494;2023-05-02T05:35:14;12.30;99.90
39957;DHT22;48483;44.640;7.494;2023-05-02T05:37:41;12.30;99.90
39957;DHT22;48483;44.640;7.494;2023-05-02T05:40:13;12.30;99.90
39957;DHT22;48483;44.640;7.494;2023-05-02T05:42:43;12.30;99.90
39957;DHT22;48483;44.640;7.494;2023-05-02T05:45:16;12.30;99.90
39957;DHT22;48483;44.640;7.494;2023-05-02T05:47:45;12.40;99.90
39957;DHT22;48483;44.640;7.494;2023-05-02T05:50:11;12.40;99.90
39957;DHT22;48483;44.640;7.494;2023-05-02T05:52:39;12.50;99.90
39957;DHT22;48483;44.640;7.494;2023-05-02T05:55:07;12.50;99.90
39957;DHT22;48483;44.640;7.494;2023-05-02T05:57:35;12.50;99.90
39957;DHT22;48483;44.640;7.494;2023-05-02T06:00:02;12.50;99.90
39957;DHT22;48483;44.640;7.494;2023-05-02T06:02:42;12.50;99.90
39957;DHT22;48483;44.640;7.494;2023-05-02T06:05:13;12.50;99.90
39957;DHT22;48483;44.640;7.494;2023-05-02T06:07:42;12.50;99.90
39957;DHT22;48483;44.640;7.494;2023-05-02T06:10:10;12.60;99.90
39957;DHT22;48483;44.640;7.494;2023-05-02T06:12:39;12.60;99.90
39957;DHT22;48483;44.640;7.494;2023-05-02T06:15:08;12.70;99.90
39957;DHT22;48483;44.640;7.494;2023-05-02T06:17:35;12.80;99.90
39957;DHT22;48483;44.640;7.494;2023-05-02T06:20:02;12.90;99.90
39957;DHT22;48483;44.640;7.494;2023-05-02T06:22:28;13.00;99.90
39957;DHT22;48483;44.640;7.494;2023-05-02T06:24:55;13.20;99.90
39957;DHT22;48483;44.640;7.494;2023-05-02T06:27:22;13.30;99.90
39957;DHT22;48483;44.640;7.494;2023-05-02T06:29:51;13.50;99.90
39957;DHT22;48483;44.640;7.494;2023-05-02T06:32:18;13.60;99.90
39957;DHT22;48483;44.640;7.494;2023-05-02T06:34:44;13.80;99.90
39957;DHT22;48483;44.640;7.494;2023-05-02T06:37:11;14.00;99.90
39957;DHT22;48483;44.640;7.494;2023-05-02T06:39:38;14.10;99.90
39957;DHT22;48483;44.640;7.494;2023-05-02T06:42:04;14.20;99.90
39957;DHT22;48483;44.640;7.494;2023-05-02T06:44:33;14.30;99.90
39957;DHT22;48483;44.640;7.494;2023-05-02T06:47:02;14.50;99.90
39957;DHT22;48483;44.640;7.494;2023-05-02T06:49:29;14.60;99.90
39957;DHT22;48483;44.640;7.494;2023-05-02T06:51:56;14.80;99.90
39957;DHT22;48483;44.640;7.494;2023-05-02T06:54:22;15.00;99.90
39957;DHT22;48483;44.640;7.494;2023-05-02T06:56:49;15.10;99.90
39957;DHT22;48483;44.640;7.494;2023-05-02T06:59:15;15.20;99.90
39957;DHT22;48483;44.640;7.494;2023-05-02T07:01:43;15.30;99.90
39957;DHT22;48483;44.640;7.494;2023-05-02T07:04:11;15.40;99.90
39957;DHT22;48483;44.640;7.494;2023-05-02T07:06:38;15.50;99.90
39957;DHT22;48483;44.640;7.494;2023-05-02T07:09:05;15.50;99.90
39957;DHT22;48483;44.640;7.494;2023-05-02T07:11:32;15.60;99.90
39957;DHT22;48483;44.640;7.494;2023-05-02T07:13:58;15.60;99.90
39957;DHT22;48483;44.640;7.494;2023-05-02T07:16:25;15.80;99.90
39957;DHT22;48483;44.640;7.494;2023-05-02T07:18:51;15.80;99.90
39957;DHT22;48483;44.640;7.494;2023-05-02T07:21:19;15.90;99.90
39957;DHT22;48483;44.640;7.494;2023-05-02T07:23:46;16.00;99.90
39957;DHT22;48483;44.640;7.494;2023-05-02T07:26:12;16.00;99.90
39957;DHT22;48483;44.640;7.494;2023-05-02T07:28:39;16.00;99.90
39957;DHT22;48483;44.640;7.494;2023-05-02T07:31:05;16.10;99.90
39957;DHT22;48483;44.640;7.494;2023-05-02T07:33:32;16.20;99.90
39957;DHT22;48483;44.640;7.494;2023-05-02T07:36:00;16.30;99.90
39957;DHT22;48483;44.640;7.494;2023-05-02T07:38:28;16.40;99.90
39957;DHT22;48483;44.640;7.494;2023-05-02T07:40:57;16.50;99.90
39957;DHT22;48483;44.640;7.494;2023-05-02T07:43:23;16.60;99.90
39957;DHT22;48483;44.640;7.494;2023-05-02T07:45:50;16.60;99.90
39957;DHT22;48483;44.640;7.494;2023-05-02T07:48:16;16.60;99.90
39957;DHT22;48483;44.640;7.494;2023-05-02T07:50:43;16.60;99.90
39957;DHT22;48483;44.640;7.494;2023-05-02T07:53:09;16.60;99.90
39957;DHT22;48483;44.640;7.494;2023-05-02T07:55:38;16.60;99.90
39957;DHT22;48483;44.640;7.494;2023-05-02T07:58:04;16.50;99.90
39957;DHT22;48483;44.640;7.494;2023-05-02T08:00:31;16.60;99.90
39957;DHT22;48483;44.640;7.494;2023-05-02T08:02:57;16.50;99.90
39957;DHT22;48483;44.640;7.494;2023-05-02T08:05:24;16.50;99.90
39957;DHT22;48483;44.640;7.494;2023-05-02T08:07:50;16.50;99.90
39957;DHT22;48483;44.640;7.494;2023-05-02T08:10:17;16.50;99.90
39957;DHT22;48483;44.640;7.494;2023-05-02T08:12:45;16.40;99.90
39957;DHT22;48483;44.640;7.494;2023-05-02T08:15:12;16.50;99.90
39957;DHT22;48483;44.640;7.494;2023-05-02T08:17:41;16.50;99.90
39957;DHT22;48483;44.640;7.494;2023-05-02T08:20:08;16.60;99.90
39957;DHT22;48483;44.640;7.494;2023-05-02T08:22:35;16.60;99.90
39957;DHT22;48483;44.640;7.494;2023-05-02T08:25:01;16.60;99.90
39957;DHT22;48483;44.640;7.494;2023-05-02T08:27:28;16.60;99.90
39957;DHT22;48483;44.640;7.494;2023-05-02T08:29:55;16.60;99.90
39957;DHT22;48483;44.640;7.494;2023-05-02T08:32:22;16.60;99.90
39957;DHT22;48483;44.640;7.494;2023-05-02T08:34:48;16.60;99.90
39957;DHT22;48483;44.640;7.494;2023-05-02T08:37:15;16.60;99.90
39957;DHT22;48483;44.640;7.494;2023-05-02T08:39:43;16.60;99.90
39957;DHT22;48483;44.640;7.494;2023-05-02T08:42:09;16.60;99.90
39957;DHT22;48483;44.640;7.494;2023-05-02T08:44:36;16.60;99.90
39957;DHT22;48483;44.640;7.494;2023-05-02T08:47:04;16.70;99.90
39957;DHT22;48483;44.640;7.494;2023-05-02T08:49:34;16.70;99.90
39957;DHT22;48483;44.640;7.494;2023-05-02T08:52:03;16.70;99.90
39957;DHT22;48483;44.640;7.494;2023-05-02T08:54:32;16.70;99.90
39957;DHT22;48483;44.640;7.494;2023-05-02T08:56:59;16.80;99.90
39957;DHT22;48483;44.640;7.494;2023-05-02T08:59:28;16.90;99.90
39957;DHT22;48483;44.640;7.494;2023-05-02T09:02:21;17.00;99.90
39957;DHT22;48483;44.640;7.494;2023-05-02T09:04:53;17.00;99.90
39957;DHT22;48483;44.640;7.494;2023-05-02T09:07:20;16.90;99.90
39957;DHT22;48483;44.640;7.494;2023-05-02T09:09:47;17.00;99.90
39957;DHT22;48483;44.640;7.494;2023-05-02T09:12:14;17.20;99.90
39957;DHT22;48483;44.640;7.494;2023-05-02T09:14:42;17.30;99.90
39957;DHT22;48483;44.640;7.494;2023-05-02T09:17:11;17.50;99.90
39957;DHT22;48483;44.640;7.494;2023-05-02T09:19:37;17.50;99.90
39957;DHT22;48483;44.640;7.494;2023-05-02T09:22:04;17.50;99.90
39957;DHT22;48483;44.640;7.494;2023-05-02T09:24:31;17.50;99.90
39957;DHT22;48483;44.640;7.494;2023-05-02T09:26:59;17.60;99.90
39957;DHT22;48483;44.640;7.494;2023-05-02T09:29:26;17.50;99.90
39957;DHT22;48483;44.640;7.494;2023-05-02T09:31:55;17.50;99.90
39957;DHT22;48483;44.640;7.494;2023-05-02T09:34:23;17.50;99.90
39957;DHT22;48483;44.640;7.494;2023-05-02T09:36:51;17.40;99.90
39957;DHT22;48483;44.640;7.494;2023-05-02T09:39:20;17.50;99.90
39957;DHT22;48483;44.640;7.494;2023-05-02T09:41:48;17.50;99.90
39957;DHT22;48483;44.640;7.494;2023-05-02T09:44:15;17.60;99.90
39957;DHT22;48483;44.640;7.494;2023-05-02T09:46:45;17.70;99.90
39957;DHT22;48483;44.640;7.494;2023-05-02T09:49:12;17.70;99.90
39957;DHT22;48483;44.640;7.494;2023-05-02T09:51:41;17.80;99.90
39957;DHT22;48483;44.640;7.494;2023-05-02T09:54:09;17.90;99.90
39957;DHT22;48483;44.640;7.494;2023-05-02T09:56:51;17.90;99.90
39957;DHT22;48483;44.640;7.494;2023-05-02T09:59:18;18.00;99.90
39957;DHT22;48483;44.640;7.494;2023-05-02T10:01:45;18.00;99.90
39957;DHT22;48483;44.640;7.494;2023-05-02T10:04:20;18.00;99.90
39957;DHT22;48483;44.640;7.494;2023-05-02T10:06:50;18.00;99.90
39957;DHT22;48483;44.640;7.494;2023-05-02T10:09:18;18.00;99.90
39957;DHT22;48483;44.640;7.494;2023-05-02T10:11:47;18.00;99.90
39957;DHT22;48483;44.640;7.494;2023-05-02T10:14:18;18.00;99.90
39957;DHT22;48483;44.640;7.494;2023-05-02T10:16:51;17.90;99.90
39957;DHT22;48483;44.640;7.494;2023-05-02T10:19:23;18.00;99.90
39957;DHT22;48483;44.640;7.494;2023-05-02T10:21:51;18.00;99.90
39957;DHT22;48483;44.640;7.494;2023-05-02T10:24:19;18.00;99.90
39957;DHT22;48483;44.640;7.494;2023-05-02T10:26:46;18.10;99.90
39957;DHT22;48483;44.640;7.494;2023-05-02T10:29:13;18.10;99.90
39957;DHT22;48483;44.640;7.494;2023-05-02T10:31:40;18.20;99.90
39957;DHT22;48483;44.640;7.494;2023-05-02T10:34:10;18.10;99.90
39957;DHT22;48483;44.640;7.494;2023-05-02T10:36:37;18.10;99.90
39957;DHT22;48483;44.640;7.494;2023-05-02T10:39:05;18.20;99.90
39957;DHT22;48483;44.640;7.494;2023-05-02T10:41:33;18.20;99.90
39957;DHT22;48483;44.640;7.494;2023-05-02T10:44:01;18.30;99.90
39957;DHT22;48483;44.640;7.494;2023-05-02T10:46:33;18.40;99.90
39957;DHT22;48483;44.640;7.494;2023-05-02T10:49:02;18.40;99.90
39957;DHT22;48483;44.640;7.494;2023-05-02T10:51:29;18.40;99.90
39957;DHT22;48483;44.640;7.494;2023-05-02T10:54:19;18.40;99.90
39957;DHT22;48483;44.640;7.494;2023-05-02T10:57:03;18.40;99.90
39957;DHT22;48483;44.640;7.494;2023-05-02T10:59:32;18.30;99.90
39957;DHT22;48483;44.640;7.494;2023-05-02T11:01:59;18.30;99.90
39957;DHT22;48483;44.640;7.494;2023-05-02T11:04:58;18.30;99.90
39957;DHT22;48483;44.640;7.494;2023-05-02T11:07:30;18.30;99.90
39957;DHT22;48483;44.640;7.494;2023-05-02T11:10:24;18.40;99.90
39957;DHT22;48483;44.640;7.494;2023-05-02T11:12:52;18.50;99.90
39957;DHT22;48483;44.640;7.494;2023-05-02T11:18:18;18.70;99.90
39957;DHT22;48483;44.640;7.494;2023-05-02T11:20:45;18.70;99.90
39957;DHT22;48483;44.640;7.494;2023-05-02T11:23:24;18.80;99.90
39957;DHT22;48483;44.640;7.494;2023-05-02T11:25:54;18.90;99.90
39957;DHT22;48483;44.640;7.494;2023-05-02T11:28:41;18.90;99.90
39957;DHT22;48483;44.640;7.494;2023-05-02T11:31:09;18.80;99.90
39957;DHT22;48483;44.640;7.494;2023-05-02T11:33:56;18.80;99.90
39957;DHT22;48483;44.640;7.494;2023-05-02T11:36:29;18.90;99.90
39957;DHT22;48483;44.640;7.494;2023-05-02T11:38:56;18.70;99.90
39957;DHT22;48483;44.640;7.494;2023-05-02T11:41:37;18.60;99.90
39957;DHT22;48483;44.640;7.494;2023-05-02T11:44:04;18.70;99.90
39957;DHT22;48483;44.640;7.494;2023-05-02T11:46:30;18.70;99.90
39957;DHT22;48483;44.640;7.494;2023-05-02T11:48:57;18.70;99.90
39957;DHT22;48483;44.640;7.494;2023-05-02T11:51:24;18.80;99.90
39957;DHT22;48483;44.640;7.494;2023-05-02T11:53:51;18.90;99.90
39957;DHT22;48483;44.640;7.494;2023-05-02T11:56:24;18.90;99.90
39957;DHT22;48483;44.640;7.494;2023-05-02T11:58:57;18.90;99.90
39957;DHT22;48483;44.640;7.494;2023-05-02T12:01:24;19.00;99.90
39957;DHT22;48483;44.640;7.494;2023-05-02T12:04:02;19.00;99.90
39957;DHT22;48483;44.640;7.494;2023-05-02T12:06:29;19.00;99.90
39957;DHT22;48483;44.640;7.494;2023-05-02T12:09:06;19.00;99.90
39957;DHT22;48483;44.640;7.494;2023-05-02T12:11:34;19.10;99.90
39957;DHT22;48483;44.640;7.494;2023-05-02T12:14:01;19.30;99.90
39957;DHT22;48483;44.640;7.494;2023-05-02T12:16:29;19.40;99.90
39957;DHT22;48483;44.640;7.494;2023-05-02T12:18:56;19.40;99.90
39957;DHT22;48483;44.640;7.494;2023-05-02T12:21:25;19.30;99.90
39957;DHT22;48483;44.640;7.494;2023-05-02T12:23:52;19.20;99.90
39957;DHT22;48483;44.640;7.494;2023-05-02T12:26:20;19.10;99.90
39957;DHT22;48483;44.640;7.494;2023-05-02T12:28:48;19.20;99.90
39957;DHT22;48483;44.640;7.494;2023-05-02T12:31:16;19.30;99.90
39957;DHT22;48483;44.640;7.494;2023-05-02T12:33:43;19.30;99.90
39957;DHT22;48483;44.640;7.494;2023-05-02T12:36:10;19.40;99.90
39957;DHT22;48483;44.640;7.494;2023-05-02T12:38:37;19.40;99.90
39957;DHT22;48483;44.640;7.494;2023-05-02T12:41:04;19.50;99.90
39957;DHT22;48483;44.640;7.494;2023-05-02T12:43:44;19.60;99.90
39957;DHT22;48483;44.640;7.494;2023-05-02T12:46:12;19.60;99.90
39957;DHT22;48483;44.640;7.494;2023-05-02T12:48:39;19.40;99.90
39957;DHT22;48483;44.640;7.494;2023-05-02T12:51:12;19.30;99.90
39957;DHT22;48483;44.640;7.494;2023-05-02T12:53:45;19.20;99.90
39957;DHT22;48483;44.640;7.494;2023-05-02T12:56:13;19.40;99.90
39957;DHT22;48483;44.640;7.494;2023-05-02T12:58:41;19.40;99.90
39957;DHT22;48483;44.640;7.494;2023-05-02T13:01:08;19.50;99.90
39957;DHT22;48483;44.640;7.494;2023-05-02T13:03:37;19.50;99.90
39957;DHT22;48483;44.640;7.494;2023-05-02T13:06:04;19.60;99.90
39957;DHT22;48483;44.640;7.494;2023-05-02T13:08:31;19.70;99.60
39957;DHT22;48483;44.640;7.494;2023-05-02T13:10:58;19.80;99.70
39957;DHT22;48483;44.640;7.494;2023-05-02T13:13:24;19.60;99.90
39957;DHT22;48483;44.640;7.494;2023-05-02T13:15:51;19.50;99.90
39957;DHT22;48483;44.640;7.494;2023-05-02T13:18:18;19.50;99.90
39957;DHT22;48483;44.640;7.494;2023-05-02T13:20:45;19.50;99.90
39957;DHT22;48483;44.640;7.494;2023-05-02T13:23:12;19.60;99.90
39957;DHT22;48483;44.640;7.494;2023-05-02T13:25:39;19.50;99.90
39957;DHT22;48483;44.640;7.494;2023-05-02T13:28:05;19.50;99.80
39957;DHT22;48483;44.640;7.494;2023-05-02T13:30:32;19.50;99.90
39957;DHT22;48483;44.640;7.494;2023-05-02T13:32:59;19.60;99.90
39957;DHT22;48483;44.640;7.494;2023-05-02T13:35:25;19.70;99.60
39957;DHT22;48483;44.640;7.494;2023-05-02T13:37:53;19.70;99.50
39957;DHT22;48483;44.640;7.494;2023-05-02T13:40:20;19.70;99.00
39957;DHT22;48483;44.640;7.494;2023-05-02T13:42:46;19.70;98.50
39957;DHT22;48483;44.640;7.494;2023-05-02T13:45:13;19.70;98.30
39957;DHT22;48483;44.640;7.494;2023-05-02T13:47:39;19.70;97.40
39957;DHT22;48483;44.640;7.494;2023-05-02T13:50:07;19.60;95.60
39957;DHT22;48483;44.640;7.494;2023-05-02T13:52:34;19.60;95.90
39957;DHT22;48483;44.640;7.494;2023-05-02T13:55:02;19.60;95.50
39957;DHT22;48483;44.640;7.494;2023-05-02T13:57:28;19.60;95.60
39957;DHT22;48483;44.640;7.494;2023-05-02T13:59:55;19.60;96.30
39957;DHT22;48483;44.640;7.494;2023-05-02T14:02:21;19.70;96.60
39957;DHT22;48483;44.640;7.494;2023-05-02T14:04:48;19.70;96.10
39957;DHT22;48483;44.640;7.494;2023-05-02T14:07:14;19.70;94.90
39957;DHT22;48483;44.640;7.494;2023-05-02T14:09:41;19.60;93.80
39957;DHT22;48483;44.640;7.494;2023-05-02T14:12:09;19.60;94.50
39957;DHT22;48483;44.640;7.494;2023-05-02T14:14:36;19.60;94.90
39957;DHT22;48483;44.640;7.494;2023-05-02T14:17:03;19.60;94.50
39957;DHT22;48483;44.640;7.494;2023-05-02T14:19:30;19.60;93.80
39957;DHT22;48483;44.640;7.494;2023-05-02T14:21:58;19.50;93.60
39957;DHT22;48483;44.640;7.494;2023-05-02T14:24:25;19.60;94.30
39957;DHT22;48483;44.640;7.494;2023-05-02T14:26:51;19.60;94.90
39957;DHT22;48483;44.640;7.494;2023-05-02T14:29:19;19.60;95.10
39957;DHT22;48483;44.640;7.494;2023-05-02T14:31:46;19.60;93.70
39957;DHT22;48483;44.640;7.494;2023-05-02T14:34:13;19.50;93.50
39957;DHT22;48483;44.640;7.494;2023-05-02T14:36:39;19.60;94.60
39957;DHT22;48483;44.640;7.494;2023-05-02T14:39:06;19.60;95.00
39957;DHT22;48483;44.640;7.494;2023-05-02T14:41:32;19.60;94.60
39957;DHT22;48483;44.640;7.494;2023-05-02T14:43:59;19.50;94.70
39957;DHT22;48483;44.640;7.494;2023-05-02T14:46:27;19.50;95.60
39957;DHT22;48483;44.640;7.494;2023-05-02T14:48:53;19.50;96.00
39957;DHT22;48483;44.640;7.494;2023-05-02T14:51:20;19.50;94.80
39957;DHT22;48483;44.640;7.494;2023-05-02T14:53:46;19.50;95.00
39957;DHT22;48483;44.640;7.494;2023-05-02T14:56:13;19.50;96.40
39957;DHT22;48483;44.640;7.494;2023-05-02T14:58:42;19.60;96.50
39957;DHT22;48483;44.640;7.494;2023-05-02T15:01:15;19.50;96.40
39957;DHT22;48483;44.640;7.494;2023-05-02T15:03:43;19.50;97.00
39957;DHT22;48483;44.640;7.494;2023-05-02T15:06:11;19.60;96.60
39957;DHT22;48483;44.640;7.494;2023-05-02T15:08:37;19.50;97.40
39957;DHT22;48483;44.640;7.494;2023-05-02T15:11:04;19.60;96.50
39957;DHT22;48483;44.640;7.494;2023-05-02T15:13:32;19.50;96.70
39957;DHT22;48483;44.640;7.494;2023-05-02T15:15:58;19.50;97.30
39957;DHT22;48483;44.640;7.494;2023-05-02T15:18:25;19.60;97.70
39957;DHT22;48483;44.640;7.494;2023-05-02T15:20:53;19.50;97.60
39957;DHT22;48483;44.640;7.494;2023-05-02T15:23:20;19.60;97.90
39957;DHT22;48483;44.640;7.494;2023-05-02T15:25:46;19.60;97.60
39957;DHT22;48483;44.640;7.494;2023-05-02T15:28:13;19.60;97.70
39957;DHT22;48483;44.640;7.494;2023-05-02T15:30:39;19.60;97.80
39957;DHT22;48483;44.640;7.494;2023-05-02T15:33:06;19.60;98.10
39957;DHT22;48483;44.640;7.494;2023-05-02T15:35:32;19.70;98.10
39957;DHT22;48483;44.640;7.494;2023-05-02T15:38:00;19.60;98.10
39957;DHT22;48483;44.640;7.494;2023-05-02T15:40:27;19.60;98.20
39957;DHT22;48483;44.640;7.494;2023-05-02T15:42:54;19.60;98.70